sensor_id;sensor_type;location;lat;lon;timestamp;pressure;altitude;pressure_sealevel;temperature;humidity
74675;BME280;63200;48.810;12.352;2023-11-19T00:01:00;97653.13;;;3.69;100.00
74675;BME280;63200;48.810;12.352;2023-11-19T00:03:26;97642.88;;;3.66;100.00
74675;BME280;63200;48.810;12.352;2023-11-19T00:05:51;97641.59;;;3.57;100.00
74675;BME280;63200;48.810;12.352;2023-11-19T00:08:16;97588.03;;;3.50;100.00
74675;BME280;63200;48.810;12.352;2023-11-19T00:10:42;97632.56;;;3.87;100.00
74675;BME280;63200;48.810;12.352;2023-11-19T00:13:07;97587.91;;;3.57;100.00
74675;BME280;63200;48.810;12.352;2023-11-19T00:15:33;97620.72;;;3.99;100.00
74675;BME280;63200;48.810;12.352;2023-11-19T00:17:58;97616.25;;;3.76;100.00
74675;BME280;63200;48.810;12.352;2023-11-19T00:20:23;97536.41;;;3.19;100.00
74675;BME280;63200;48.810;12.352;2023-11-19T00:22:49;97611.75;;;3.94;100.00
74675;BME280;63200;48.810;12.352;2023-11-19T00:25:18;97603.66;;;3.65;100.00
74675;BME280;63200;48.810;12.352;2023-11-19T00:27:43;97596.25;;;3.84;100.00
74675;BME280;63200;48.810;12.352;2023-11-19T00:30:12;97589.81;;;3.97;100.00
74675;BME280;63200;48.810;12.352;2023-11-19T00:32:39;97536.81;;;3.40;100.00
74675;BME280;63200;48.810;12.352;2023-11-19T00:35:08;97580.69;;;3.57;100.00
74675;BME280;63200;48.810;12.352;2023-11-19T00:37:35;97566.34;;;3.92;100.00
74675;BME280;63200;48.810;12.352;2023-11-19T00:40:00;97567.13;;;3.93;100.00
74675;BME280;63200;48.810;12.352;2023-11-19T00:42:25;97571.78;;;3.69;100.00
74675;BME280;63200;48.810;12.352;2023-11-19T00:44:51;97564.19;;;3.77;100.00
74675;BME280;63200;48.810;12.352;2023-11-19T00:47:17;97581.94;;;3.78;100.00
74675;BME280;63200;48.810;12.352;2023-11-19T00:49:46;97563.16;;;3.66;100.00
74675;BME280;63200;48.810;12.352;2023-11-19T00:52:12;97561.63;;;3.71;100.00
74675;BME280;63200;48.810;12.352;2023-11-19T00:54:37;97547.25;;;3.65;100.00
74675;BME280;63200;48.810;12.352;2023-11-19T00:57:02;97564.09;;;3.60;100.00
74675;BME280;63200;48.810;12.352;2023-11-19T00:59:28;97554.31;;;3.95;100.00
74675;BME280;63200;48.810;12.352;2023-11-19T01:01:54;97558.53;;;3.91;100.00
74675;BME280;63200;48.810;12.352;2023-11-19T01:04:19;97557.75;;;3.78;100.00
74675;BME280;63200;48.810;12.352;2023-11-19T01:06:44;97561.66;;;3.59;100.00
74675;BME280;63200;48.810;12.352;2023-11-19T01:09:10;97520.69;;;3.52;100.00
74675;BME280;63200;48.810;12.352;2023-11-19T01:11:35;97559.28;;;4.03;100.00
74675;BME280;63200;48.810;12.352;2023-11-19T01:14:01;97550.97;;;4.05;100.00
74675;BME280;63200;48.810;12.352;2023-11-19T01:16:26;97557.00;;;3.95;100.00
74675;BME280;63200;48.810;12.352;2023-11-19T01:18:52;97551.69;;;3.71;100.00
74675;BME280;63200;48.810;12.352;2023-11-19T01:21:18;97548.19;;;3.99;100.00
74675;BME280;63200;48.810;12.352;2023-11-19T01:23:43;97550.66;;;4.01;100.00
74675;BME280;63200;48.810;12.352;2023-11-19T01:26:10;97546.94;;;3.90;100.00
74675;BME280;63200;48.810;12.352;2023-11-19T01:28:36;97533.31;;;3.92;100.00
74675;BME280;63200;48.810;12.352;2023-11-19T01:31:01;97535.69;;;3.76;100.00
74675;BME280;63200;48.810;12.352;2023-11-19T01:33:26;97538.69;;;3.92;100.00
74675;BME280;63200;48.810;12.352;2023-11-19T01:35:53;97533.44;;;3.85;100.00
74675;BME280;63200;48.810;12.352;2023-11-19T01:38:18;97529.81;;;3.79;100.00
74675;BME280;63200;48.810;12.352;2023-11-19T01:40:43;97538.97;;;3.78;100.00
74675;BME280;63200;48.810;12.352;2023-11-19T01:43:09;97530.97;;;3.83;100.00
74675;BME280;63200;48.810;12.352;2023-11-19T01:45:37;97518.66;;;3.71;100.00
74675;BME280;63200;48.810;12.352;2023-11-19T01:48:03;97518.66;;;3.71;100.00
74675;BME280;63200;48.810;12.352;2023-11-19T01:50:30;97518.44;;;3.72;100.00
74675;BME280;63200;48.810;12.352;2023-11-19T01:52:56;97496.50;;;3.63;100.00
74675;BME280;63200;48.810;12.352;2023-11-19T01:55:23;97523.03;;;3.89;100.00
74675;BME280;63200;48.810;12.352;2023-11-19T01:57:49;97518.78;;;3.76;100.00
74675;BME280;63200;48.810;12.352;2023-11-19T02:00:15;97516.66;;;3.78;100.00
74675;BME280;63200;48.810;12.352;2023-11-19T02:02:41;97515.84;;;3.77;100.00
74675;BME280;63200;48.810;12.352;2023-11-19T02:05:08;97505.25;;;3.71;100.00
74675;BME280;63200;48.810;12.352;2023-11-19T02:07:34;97509.19;;;3.80;100.00
74675;BME280;63200;48.810;12.352;2023-11-19T02:09:59;97493.94;;;4.14;100.00
74675;BME280;63200;48.810;12.352;2023-11-19T02:12:27;97488.53;;;3.97;100.00
74675;BME280;63200;48.810;12.352;2023-11-19T02:14:59;97494.56;;;4.05;100.00
74675;BME280;63200;48.810;12.352;2023-11-19T02:17:34;97481.97;;;4.05;100.00
74675;BME280;63200;48.810;12.352;2023-11-19T02:20:00;97482.75;;;4.06;100.00
74675;BME280;63200;48.810;12.352;2023-11-19T02:22:25;97477.13;;;3.90;100.00
74675;BME280;63200;48.810;12.352;2023-11-19T02:25:00;97472.88;;;3.77;100.00
74675;BME280;63200;48.810;12.352;2023-11-19T02:27:49;97483.97;;;3.98;100.00
74675;BME280;63200;48.810;12.352;2023-11-19T02:30:16;97486.75;;;3.74;100.00
74675;BME280;63200;48.810;12.352;2023-11-19T02:32:42;97475.72;;;3.71;100.00
74675;BME280;63200;48.810;12.352;2023-11-19T02:35:08;97475.41;;;3.84;100.00
74675;BME280;63200;48.810;12.352;2023-11-19T02:37:34;97467.59;;;3.82;100.00
74675;BME280;63200;48.810;12.352;2023-11-19T02:39:59;97453.88;;;4.13;100.00
74675;BME280;63200;48.810;12.352;2023-11-19T02:42:28;97441.31;;;3.84;100.00
74675;BME280;63200;48.810;12.352;2023-11-19T02:44:53;97409.06;;;3.84;100.00
74675;BME280;63200;48.810;12.352;2023-11-19T02:47:18;97436.75;;;3.85;100.00
74675;BME280;63200;48.810;12.352;2023-11-19T02:49:46;97430.16;;;3.93;100.00
74675;BME280;63200;48.810;12.352;2023-11-19T02:52:13;97362.50;;;3.62;100.00
74675;BME280;63200;48.810;12.352;2023-11-19T02:54:39;97414.44;;;3.84;100.00
74675;BME280;63200;48.810;12.352;2023-11-19T02:57:06;97410.63;;;3.80;100.00
74675;BME280;63200;48.810;12.352;2023-11-19T02:59:35;97403.44;;;3.69;100.00
74675;BME280;63200;48.810;12.352;2023-11-19T03:02:05;97408.91;;;3.74;100.00
74675;BME280;63200;48.810;12.352;2023-11-19T03:04:32;97404.75;;;3.83;100.00
74675;BME280;63200;48.810;12.352;2023-11-19T03:06:58;97399.88;;;3.80;100.00
74675;BME280;63200;48.810;12.352;2023-11-19T03:09:23;97398.81;;;3.81;100.00
74675;BME280;63200;48.810;12.352;2023-11-19T03:11:49;97412.16;;;3.76;100.00
74675;BME280;63200;48.810;12.352;2023-11-19T03:14:14;97402.00;;;3.78;100.00
74675;BME280;63200;48.810;12.352;2023-11-19T03:16:40;97403.78;;;3.73;100.00
74675;BME280;63200;48.810;12.352;2023-11-19T03:19:05;97402.81;;;3.79;100.00
74675;BME280;63200;48.810;12.352;2023-11-19T03:21:31;97395.00;;;3.77;100.00
74675;BME280;63200;48.810;12.352;2023-11-19T03:23:57;97346.97;;;3.47;100.00
74675;BME280;63200;48.810;12.352;2023-11-19T03:26:26;97393.88;;;3.73;100.00
74675;BME280;63200;48.810;12.352;2023-11-19T03:28:52;97404.34;;;3.75;100.00
74675;BME280;63200;48.810;12.352;2023-11-19T03:31:17;97399.06;;;3.80;100.00
74675;BME280;63200;48.810;12.352;2023-11-19T03:33:42;97392.25;;;3.89;100.00
74675;BME280;63200;48.810;12.352;2023-11-19T03:36:08;97400.44;;;3.99;100.00
74675;BME280;63200;48.810;12.352;2023-11-19T03:38:34;97369.13;;;3.71;100.00
74675;BME280;63200;48.810;12.352;2023-11-19T03:40:59;97361.38;;;3.58;100.00
74675;BME280;63200;48.810;12.352;2023-11-19T03:43:25;97396.31;;;3.92;100.00
74675;BME280;63200;48.810;12.352;2023-11-19T03:45:50;97403.00;;;3.89;100.00
74675;BME280;63200;48.810;12.352;2023-11-19T03:48:15;97388.66;;;3.83;100.00
74675;BME280;63200;48.810;12.352;2023-11-19T03:50:44;97399.16;;;4.02;100.00
74675;BME280;63200;48.810;12.352;2023-11-19T03:53:09;97393.38;;;3.93;100.00
74675;BME280;63200;48.810;12.352;2023-11-19T03:55:34;97390.94;;;3.92;100.00
74675;BME280;63200;48.810;12.352;2023-11-19T03:58:00;97333.84;;;3.50;100.00
74675;BME280;63200;48.810;12.352;2023-11-19T04:00:25;97383.53;;;3.82;100.00
74675;BME280;63200;48.810;12.352;2023-11-19T04:02:50;97370.84;;;3.77;100.00
74675;BME280;63200;48.810;12.352;2023-11-19T04:05:15;97339.66;;;3.59;100.00
74675;BME280;63200;48.810;12.352;2023-11-19T04:07:41;97392.88;;;3.79;100.00
74675;BME280;63200;48.810;12.352;2023-11-19T04:10:06;97382.72;;;3.81;100.00
74675;BME280;63200;48.810;12.352;2023-11-19T04:12:32;97383.75;;;3.80;100.00
74675;BME280;63200;48.810;12.352;2023-11-19T04:14:57;97353.56;;;3.56;100.00
74675;BME280;63200;48.810;12.352;2023-11-19T04:17:22;97376.47;;;3.76;100.00
74675;BME280;63200;48.810;12.352;2023-11-19T04:19:48;97377.34;;;3.81;100.00
74675;BME280;63200;48.810;12.352;2023-11-19T04:22:14;97333.84;;;3.50;100.00
74675;BME280;63200;48.810;12.352;2023-11-19T04:24:39;97374.25;;;3.90;100.00
74675;BME280;63200;48.810;12.352;2023-11-19T04:27:06;97369.13;;;3.88;100.00
74675;BME280;63200;48.810;12.352;2023-11-19T04:29:31;97353.59;;;3.73;100.00
74675;BME280;63200;48.810;12.352;2023-11-19T04:31:57;97350.41;;;3.93;100.00
74675;BME280;63200;48.810;12.352;2023-11-19T04:34:22;97339.09;;;3.91;100.00
74675;BME280;63200;48.810;12.352;2023-11-19T04:36:47;97357.16;;;3.96;100.00
74675;BME280;63200;48.810;12.352;2023-11-19T04:39:13;97359.19;;;3.89;100.00
74675;BME280;63200;48.810;12.352;2023-11-19T04:41:47;97371.00;;;3.88;100.00
74675;BME280;63200;48.810;12.352;2023-11-19T04:44:16;97367.16;;;3.83;100.00
74675;BME280;63200;48.810;12.352;2023-11-19T04:46:42;97368.72;;;3.96;100.00
74675;BME280;63200;48.810;12.352;2023-11-19T04:49:11;97365.78;;;3.81;100.00
74675;BME280;63200;48.810;12.352;2023-11-19T04:51:45;97362.38;;;3.86;100.00
74675;BME280;63200;48.810;12.352;2023-11-19T04:54:12;97293.13;;;3.71;100.00
74675;BME280;63200;48.810;12.352;2023-11-19T04:56:38;97298.09;;;3.79;100.00
74675;BME280;63200;48.810;12.352;2023-11-19T04:59:04;97339.59;;;3.88;100.00
74675;BME280;63200;48.810;12.352;2023-11-19T05:01:31;97328.59;;;3.90;100.00
74675;BME280;63200;48.810;12.352;2023-11-19T05:03:57;97322.25;;;3.96;100.00
74675;BME280;63200;48.810;12.352;2023-11-19T05:06:29;97325.09;;;3.89;100.00
74675;BME280;63200;48.810;12.352;2023-11-19T05:08:55;97277.75;;;3.66;100.00
74675;BME280;63200;48.810;12.352;2023-11-19T05:11:21;97305.97;;;4.03;100.00
74675;BME280;63200;48.810;12.352;2023-11-19T05:13:46;97283.66;;;4.02;100.00
74675;BME280;63200;48.810;12.352;2023-11-19T05:16:12;97279.69;;;4.27;100.00
74675;BME280;63200;48.810;12.352;2023-11-19T05:18:41;97297.56;;;3.99;100.00
74675;BME280;63200;48.810;12.352;2023-11-19T05:21:06;97301.25;;;3.93;100.00
74675;BME280;63200;48.810;12.352;2023-11-19T05:23:32;97282.25;;;3.99;100.00
74675;BME280;63200;48.810;12.352;2023-11-19T05:25:59;97277.13;;;3.98;100.00
74675;BME280;63200;48.810;12.352;2023-11-19T05:28:25;97302.94;;;3.99;100.00
74675;BME280;63200;48.810;12.352;2023-11-19T05:30:51;97324.44;;;3.99;100.00
74675;BME280;63200;48.810;12.352;2023-11-19T05:33:16;97329.56;;;4.00;100.00
74675;BME280;63200;48.810;12.352;2023-11-19T05:35:42;97324.19;;;4.00;100.00
74675;BME280;63200;48.810;12.352;2023-11-19T05:38:07;97311.88;;;4.05;100.00
74675;BME280;63200;48.810;12.352;2023-11-19T05:40:32;97312.22;;;4.08;100.00
74675;BME280;63200;48.810;12.352;2023-11-19T05:42:58;97315.47;;;4.10;100.00
74675;BME280;63200;48.810;12.352;2023-11-19T05:45:23;97310.41;;;4.14;100.00
74675;BME280;63200;48.810;12.352;2023-11-19T05:47:48;97310.81;;;4.23;100.00
74675;BME280;63200;48.810;12.352;2023-11-19T05:50:14;97311.22;;;4.31;100.00
74675;BME280;63200;48.810;12.352;2023-11-19T05:52:39;97273.00;;;3.90;100.00
74675;BME280;63200;48.810;12.352;2023-11-19T05:55:06;97330.41;;;4.23;100.00
74675;BME280;63200;48.810;12.352;2023-11-19T05:57:36;97334.03;;;4.12;100.00
74675;BME280;63200;48.810;12.352;2023-11-19T06:00:01;97337.59;;;4.17;100.00
74675;BME280;63200;48.810;12.352;2023-11-19T06:02:28;97332.94;;;4.30;100.00
74675;BME280;63200;48.810;12.352;2023-11-19T06:04:53;97334.56;;;4.31;100.00
74675;BME280;63200;48.810;12.352;2023-11-19T06:07:19;97322.94;;;4.25;100.00
74675;BME280;63200;48.810;12.352;2023-11-19T06:09:45;97320.06;;;4.32;100.00
74675;BME280;63200;48.810;12.352;2023-11-19T06:12:10;97308.16;;;4.67;100.00
74675;BME280;63200;48.810;12.352;2023-11-19T06:14:35;97295.31;;;4.30;100.00
74675;BME280;63200;48.810;12.352;2023-11-19T06:17:01;97299.78;;;4.41;100.00
74675;BME280;63200;48.810;12.352;2023-11-19T06:19:26;97303.63;;;4.28;100.00
74675;BME280;63200;48.810;12.352;2023-11-19T06:21:52;97294.00;;;4.32;100.00
74675;BME280;63200;48.810;12.352;2023-11-19T06:24:17;97293.78;;;4.34;100.00
74675;BME280;63200;48.810;12.352;2023-11-19T06:26:43;97290.84;;;4.36;100.00
74675;BME280;63200;48.810;12.352;2023-11-19T06:29:08;97296.97;;;4.53;100.00
74675;BME280;63200;48.810;12.352;2023-11-19T06:31:34;97240.13;;;4.00;100.00
74675;BME280;63200;48.810;12.352;2023-11-19T06:33:59;97305.22;;;4.46;100.00
74675;BME280;63200;48.810;12.352;2023-11-19T06:36:24;97293.41;;;4.47;100.00
74675;BME280;63200;48.810;12.352;2023-11-19T06:38:49;97297.34;;;4.40;100.00
74675;BME280;63200;48.810;12.352;2023-11-19T06:41:15;97300.75;;;4.35;100.00
74675;BME280;63200;48.810;12.352;2023-11-19T06:43:40;97306.19;;;4.40;100.00
74675;BME280;63200;48.810;12.352;2023-11-19T06:46:06;97311.31;;;4.42;100.00
74675;BME280;63200;48.810;12.352;2023-11-19T06:48:39;97311.66;;;4.45;100.00
74675;BME280;63200;48.810;12.352;2023-11-19T06:51:04;97306.88;;;4.30;100.00
74675;BME280;63200;48.810;12.352;2023-11-19T06:53:30;97329.34;;;4.41;100.00
74675;BME280;63200;48.810;12.352;2023-11-19T06:55:55;97325.09;;;4.45;100.00
74675;BME280;63200;48.810;12.352;2023-11-19T06:58:22;97327.22;;;4.43;100.00
74675;BME280;63200;48.810;12.352;2023-11-19T07:00:47;97319.19;;;4.48;100.00
74675;BME280;63200;48.810;12.352;2023-11-19T07:03:14;97312.22;;;4.47;100.00
74675;BME280;63200;48.810;12.352;2023-11-19T07:05:41;97317.28;;;4.44;100.00
74675;BME280;63200;48.810;12.352;2023-11-19T07:08:06;97307.13;;;4.51;100.00
74675;BME280;63200;48.810;12.352;2023-11-19T07:10:32;97305.97;;;4.64;100.00
74675;BME280;63200;48.810;12.352;2023-11-19T07:12:58;97301.34;;;4.59;100.00
74675;BME280;63200;48.810;12.352;2023-11-19T07:15:24;97304.78;;;4.55;100.00
74675;BME280;63200;48.810;12.352;2023-11-19T07:17:49;97300.53;;;4.59;100.00
74675;BME280;63200;48.810;12.352;2023-11-19T07:20:14;97294.97;;;4.43;100.00
74675;BME280;63200;48.810;12.352;2023-11-19T07:22:43;97300.56;;;4.42;100.00
74675;BME280;63200;48.810;12.352;2023-11-19T07:25:12;97303.13;;;4.54;100.00
74675;BME280;63200;48.810;12.352;2023-11-19T07:27:38;97308.22;;;4.50;100.00
74675;BME280;63200;48.810;12.352;2023-11-19T07:30:05;97319.34;;;4.59;100.00
74675;BME280;63200;48.810;12.352;2023-11-19T07:32:32;97245.25;;;4.24;100.00
74675;BME280;63200;48.810;12.352;2023-11-19T07:34:57;97300.78;;;4.79;100.00
74675;BME280;63200;48.810;12.352;2023-11-19T07:37:23;97306.53;;;4.66;100.00
74675;BME280;63200;48.810;12.352;2023-11-19T07:39:48;97303.34;;;4.69;100.00
74675;BME280;63200;48.810;12.352;2023-11-19T07:42:13;97269.88;;;4.38;100.00
74675;BME280;63200;48.810;12.352;2023-11-19T07:44:39;97314.53;;;4.61;100.00
74675;BME280;63200;48.810;12.352;2023-11-19T07:47:04;97312.41;;;4.63;100.00
74675;BME280;63200;48.810;12.352;2023-11-19T07:49:29;97312.97;;;4.65;100.00
74675;BME280;63200;48.810;12.352;2023-11-19T07:51:56;97313.59;;;4.72;100.00
74675;BME280;63200;48.810;12.352;2023-11-19T07:54:21;97304.41;;;4.68;100.00
74675;BME280;63200;48.810;12.352;2023-11-19T07:56:47;97308.41;;;4.65;100.00
74675;BME280;63200;48.810;12.352;2023-11-19T07:59:12;97311.91;;;4.66;100.00
74675;BME280;63200;48.810;12.352;2023-11-19T08:01:37;97265.28;;;4.33;100.00
74675;BME280;63200;48.810;12.352;2023-11-19T08:04:02;97308.16;;;4.67;100.00
74675;BME280;63200;48.810;12.352;2023-11-19T08:06:28;97309.91;;;4.78;100.00
74675;BME280;63200;48.810;12.352;2023-11-19T08:08:53;97306.75;;;4.87;100.00
74675;BME280;63200;48.810;12.352;2023-11-19T08:11:19;97265.56;;;4.59;100.00
74675;BME280;63200;48.810;12.352;2023-11-19T08:13:45;97291.00;;;4.73;100.00
74675;BME280;63200;48.810;12.352;2023-11-19T08:16:10;97320.13;;;5.04;100.00
74675;BME280;63200;48.810;12.352;2023-11-19T08:18:36;97314.88;;;4.92;100.00
74675;BME280;63200;48.810;12.352;2023-11-19T08:21:01;97310.81;;;4.89;100.00
74675;BME280;63200;48.810;12.352;2023-11-19T08:23:30;97315.91;;;4.86;100.00
74675;BME280;63200;48.810;12.352;2023-11-19T08:25:55;97284.25;;;4.71;100.00
74675;BME280;63200;48.810;12.352;2023-11-19T08:28:20;97259.00;;;4.49;100.00
74675;BME280;63200;48.810;12.352;2023-11-19T08:30:46;97255.72;;;4.42;100.00
74675;BME280;63200;48.810;12.352;2023-11-19T08:33:11;97309.53;;;4.70;100.00
74675;BME280;63200;48.810;12.352;2023-11-19T08:35:37;97289.75;;;4.59;100.00
74675;BME280;63200;48.810;12.352;2023-11-19T08:38:02;97302.22;;;4.65;100.00
74675;BME280;63200;48.810;12.352;2023-11-19T08:40:28;97292.59;;;4.69;100.00
74675;BME280;63200;48.810;12.352;2023-11-19T08:49:39;97277.03;;;4.49;100.00
74675;BME280;63200;48.810;12.352;2023-11-19T08:52:05;97306.28;;;4.67;100.00
74675;BME280;63200;48.810;12.352;2023-11-19T08:54:32;97248.69;;;4.41;100.00
74675;BME280;63200;48.810;12.352;2023-11-19T08:57:13;97295.34;;;4.52;100.00
74675;BME280;63200;48.810;12.352;2023-11-19T09:03:00;97311.31;;;4.42;100.00
74675;BME280;63200;48.810;12.352;2023-11-19T09:05:25;97304.44;;;4.51;100.00
74675;BME280;63200;48.810;12.352;2023-11-19T09:14:56;97319.28;;;4.54;100.00
74675;BME280;63200;48.810;12.352;2023-11-19T09:20:52;97322.47;;;4.50;100.00
74675;BME280;63200;48.810;12.352;2023-11-19T09:23:17;97325.00;;;4.40;100.00
74675;BME280;63200;48.810;12.352;2023-11-19T09:25:43;97318.28;;;4.60;100.00
74675;BME280;63200;48.810;12.352;2023-11-19T09:28:08;97309.53;;;4.47;100.00
74675;BME280;63200;48.810;12.352;2023-11-19T09:30:33;97306.72;;;4.59;100.00
74675;BME280;63200;48.810;12.352;2023-11-19T09:32:59;97309.22;;;4.66;100.00
74675;BME280;63200;48.810;12.352;2023-11-19T09:35:24;97297.78;;;4.76;100.00
74675;BME280;63200;48.810;12.352;2023-11-19T09:37:50;97304.19;;;4.97;100.00
74675;BME280;63200;48.810;12.352;2023-11-19T09:43:38;97295.38;;;5.02;100.00
74675;BME280;63200;48.810;12.352;2023-11-19T09:46:05;97302.53;;;5.18;100.00
74675;BME280;63200;48.810;12.352;2023-11-19T09:48:33;97289.78;;;5.36;100.00
74675;BME280;63200;48.810;12.352;2023-11-19T09:51:00;97295.94;;;5.31;100.00
74675;BME280;63200;48.810;12.352;2023-11-19T09:53:26;97296.38;;;5.50;100.00
74675;BME280;63200;48.810;12.352;2023-11-19T09:55:52;97295.59;;;5.55;100.00
74675;BME280;63200;48.810;12.352;2023-11-19T10:01:39;97247.84;;;5.45;100.00
74675;BME280;63200;48.810;12.352;2023-11-19T10:04:06;97268.97;;;5.96;100.00
74675;BME280;63200;48.810;12.352;2023-11-19T10:06:32;97263.16;;;6.09;100.00
74675;BME280;63200;48.810;12.352;2023-11-19T10:08:57;97275.72;;;6.41;100.00
74675;BME280;63200;48.810;12.352;2023-11-19T10:11:24;97292.66;;;6.90;100.00
74675;BME280;63200;48.810;12.352;2023-11-19T10:13:51;97289.69;;;6.91;100.00
74675;BME280;63200;48.810;12.352;2023-11-19T10:16:17;97269.38;;;6.78;100.00
74675;BME280;63200;48.810;12.352;2023-11-19T10:18:46;97270.44;;;6.67;100.00
74675;BME280;63200;48.810;12.352;2023-11-19T10:21:13;97291.19;;;6.56;100.00
74675;BME280;63200;48.810;12.352;2023-11-19T10:23:49;97286.59;;;6.57;100.00
74675;BME280;63200;48.810;12.352;2023-11-19T10:26:15;97274.13;;;6.45;100.00
74675;BME280;63200;48.810;12.352;2023-11-19T10:28:40;97270.34;;;6.46;100.00
74675;BME280;63200;48.810;12.352;2023-11-19T10:31:09;97274.28;;;6.23;100.00
74675;BME280;63200;48.810;12.352;2023-11-19T10:33:34;97270.44;;;6.09;100.00
74675;BME280;63200;48.810;12.352;2023-11-19T10:35:59;97254.28;;;6.09;100.00
74675;BME280;63200;48.810;12.352;2023-11-19T10:38:26;97199.41;;;5.88;100.00
74675;BME280;63200;48.810;12.352;2023-11-19T10:40:52;97258.13;;;6.23;100.00
74675;BME280;63200;48.810;12.352;2023-11-19T10:43:18;97261.38;;;6.30;100.00
74675;BME280;63200;48.810;12.352;2023-11-19T10:45:44;97205.03;;;5.81;100.00
74675;BME280;63200;48.810;12.352;2023-11-19T10:48:09;97260.22;;;6.16;100.00
74675;BME280;63200;48.810;12.352;2023-11-19T10:50:36;97240.22;;;6.07;100.00
74675;BME280;63200;48.810;12.352;2023-11-19T10:53:03;97257.03;;;5.81;100.00
74675;BME280;63200;48.810;12.352;2023-11-19T10:55:31;97244.16;;;5.94;100.00
74675;BME280;63200;48.810;12.352;2023-11-19T10:58:01;97238.59;;;6.06;100.00
74675;BME280;63200;48.810;12.352;2023-11-19T11:00:29;97253.38;;;5.98;100.00
74675;BME280;63200;48.810;12.352;2023-11-19T11:03:01;97253.25;;;5.82;100.00
74675;BME280;63200;48.810;12.352;2023-11-19T11:05:32;97249.91;;;6.03;100.00
74675;BME280;63200;48.810;12.352;2023-11-19T11:08:00;97260.19;;;5.73;100.00
74675;BME280;63200;48.810;12.352;2023-11-19T11:10:26;97254.72;;;5.63;100.00
74675;BME280;63200;48.810;12.352;2023-11-19T11:12:52;97204.81;;;5.50;100.00
74675;BME280;63200;48.810;12.352;2023-11-19T11:15:26;97250.72;;;5.65;100.00
74675;BME280;63200;48.810;12.352;2023-11-19T11:18:00;97251.97;;;5.90;100.00
74675;BME280;63200;48.810;12.352;2023-11-19T11:20:30;97245.91;;;5.73;100.00
74675;BME280;63200;48.810;12.352;2023-11-19T11:23:27;97248.19;;;5.91;100.00
74675;BME280;63200;48.810;12.352;2023-11-19T11:32:19;97232.81;;;6.34;100.00
74675;BME280;63200;48.810;12.352;2023-11-19T11:35:12;97230.75;;;6.57;100.00
74675;BME280;63200;48.810;12.352;2023-11-19T11:37:48;97220.81;;;6.78;100.00
74675;BME280;63200;48.810;12.352;2023-11-19T11:40:15;97222.47;;;6.90;100.00
74675;BME280;63200;48.810;12.352;2023-11-19T11:42:41;97240.31;;;7.01;100.00
74675;BME280;63200;48.810;12.352;2023-11-19T11:45:14;97226.56;;;7.03;100.00
74675;BME280;63200;48.810;12.352;2023-11-19T11:50:18;97242.47;;;7.20;100.00
74675;BME280;63200;48.810;12.352;2023-11-19T11:55:28;97249.53;;;7.41;100.00
74675;BME280;63200;48.810;12.352;2023-11-19T11:57:54;97253.03;;;7.37;100.00
74675;BME280;63200;48.810;12.352;2023-11-19T12:00:30;97194.16;;;7.18;100.00
74675;BME280;63200;48.810;12.352;2023-11-19T12:03:00;97228.47;;;7.64;100.00
74675;BME280;63200;48.810;12.352;2023-11-19T12:05:26;97230.91;;;7.60;100.00
74675;BME280;63200;48.810;12.352;2023-11-19T12:07:55;97195.78;;;7.60;100.00
74675;BME280;63200;48.810;12.352;2023-11-19T12:10:20;97229.81;;;7.77;100.00
74675;BME280;63200;48.810;12.352;2023-11-19T12:12:47;97228.13;;;8.07;100.00
74675;BME280;63200;48.810;12.352;2023-11-19T12:15:12;97225.44;;;8.01;100.00
74675;BME280;63200;48.810;12.352;2023-11-19T12:17:47;97211.28;;;8.25;100.00
74675;BME280;63200;48.810;12.352;2023-11-19T12:20:14;97221.63;;;8.78;100.00
74675;BME280;63200;48.810;12.352;2023-11-19T12:22:42;97203.25;;;9.55;100.00
74675;BME280;63200;48.810;12.352;2023-11-19T12:25:10;97160.78;;;9.74;100.00
74675;BME280;63200;48.810;12.352;2023-11-19T12:27:36;97161.38;;;9.71;100.00
74675;BME280;63200;48.810;12.352;2023-11-19T12:30:03;97189.53;;;9.75;100.00
74675;BME280;63200;48.810;12.352;2023-11-19T12:32:42;97196.66;;;9.66;100.00
74675;BME280;63200;48.810;12.352;2023-11-19T12:35:09;97143.47;;;9.46;100.00
74675;BME280;63200;48.810;12.352;2023-11-19T12:37:47;97177.16;;;9.64;100.00
74675;BME280;63200;48.810;12.352;2023-11-19T12:40:17;97175.63;;;9.53;100.00
74675;BME280;63200;48.810;12.352;2023-11-19T12:42:49;97178.69;;;9.46;100.00
74675;BME280;63200;48.810;12.352;2023-11-19T12:45:15;97150.13;;;9.24;100.00
74675;BME280;63200;48.810;12.352;2023-11-19T12:47:42;97120.81;;;9.31;100.00
74675;BME280;63200;48.810;12.352;2023-11-19T12:50:09;97155.59;;;10.02;100.00
74675;BME280;63200;48.810;12.352;2023-11-19T12:52:35;97167.69;;;10.39;100.00
74675;BME280;63200;48.810;12.352;2023-11-19T12:55:02;97170.56;;;10.48;100.00
74675;BME280;63200;48.810;12.352;2023-11-19T12:57:38;97165.50;;;10.79;100.00
74675;BME280;63200;48.810;12.352;2023-11-19T13:00:05;97164.91;;;11.21;100.00
74675;BME280;63200;48.810;12.352;2023-11-19T13:02:48;97134.78;;;11.50;100.00
74675;BME280;63200;48.810;12.352;2023-11-19T13:07:49;97140.06;;;11.60;100.00
74675;BME280;63200;48.810;12.352;2023-11-19T13:10:15;97153.44;;;11.71;100.00
74675;BME280;63200;48.810;12.352;2023-11-19T13:12:40;97159.13;;;11.88;100.00
74675;BME280;63200;48.810;12.352;2023-11-19T13:15:06;97144.69;;;12.57;100.00
74675;BME280;63200;48.810;12.352;2023-11-19T13:17:32;97146.56;;;12.85;100.00
74675;BME280;63200;48.810;12.352;2023-11-19T13:19:57;97147.28;;;12.76;100.00
74675;BME280;63200;48.810;12.352;2023-11-19T13:22:22;97132.44;;;12.32;100.00
74675;BME280;63200;48.810;12.352;2023-11-19T13:24:48;97146.25;;;12.22;100.00
74675;BME280;63200;48.810;12.352;2023-11-19T13:27:13;97103.41;;;11.86;100.00
74675;BME280;63200;48.810;12.352;2023-11-19T13:29:39;97106.72;;;11.82;100.00